createdAt,value
2022-10-03T00:02:31.427Z,93636.97
2022-10-03T00:17:49.315Z,93615.22
2022-10-03T00:33:03.360Z,93602.66
2022-10-03T00:48:11.810Z,93618.25
2022-10-03T01:03:48.887Z,93601.94
2022-10-03T01:19:02.814Z,93587.13
2022-10-03T01:34:20.934Z,93584.28
2022-10-03T01:49:34.127Z,93577.34
2022-10-03T02:04:41.601Z,93565.00
2022-10-03T02:19:49.027Z,93553.53
2022-10-03T02:34:56.972Z,93556.38
2022-10-03T02:50:19.322Z,93551.91
2022-10-03T03:05:23.910Z,93550.63
2022-10-03T03:20:34.190Z,93543.00
2022-10-03T03:35:38.454Z,93549.63
2022-10-03T03:51:03.573Z,93532.50
2022-10-03T04:06:17.474Z,93521.63
2022-10-03T04:21:38.096Z,93518.69
2022-10-03T04:36:53.811Z,93525.44
2022-10-03T04:52:27.660Z,93518.53
2022-10-03T05:07:32.879Z,93522.91
2022-10-03T05:22:47.206Z,93507.72
2022-10-03T05:38:04.282Z,93502.19
2022-10-03T05:53:17.771Z,93461.78
2022-10-03T06:08:40.543Z,93496.00
2022-10-03T06:23:58.849Z,93517.22
2022-10-03T06:39:15.310Z,93505.69
2022-10-03T06:54:16.815Z,93527.72
2022-10-03T07:09:18.246Z,93552.41
2022-10-03T07:24:42.531Z,93612.91
2022-10-03T07:39:50.088Z,93635.53
2022-10-03T07:55:10.391Z,93639.88
2022-10-03T08:10:31.489Z,93632.63
2022-10-03T08:25:36.062Z,93640.47
2022-10-03T08:40:40.572Z,93647.03
2022-10-03T08:55:47.906Z,93660.13
2022-10-03T09:11:08.126Z,93658.53
2022-10-03T09:26:18.732Z,93646.81
2022-10-03T09:41:20.159Z,93645.06
2022-10-03T09:56:27.750Z,93650.88
2022-10-03T10:11:35.479Z,93640.94
2022-10-03T10:26:46.544Z,93636.81
2022-10-03T10:42:06.830Z,93630.69
2022-10-03T10:57:27.151Z,93630.41
2022-10-03T11:12:47.257Z,93623.69
2022-10-03T11:28:08.056Z,93634.94
2022-10-03T11:43:12.564Z,93632.94
2022-10-03T11:58:14.041Z,93625.41
2022-10-03T12:13:23.176Z,93636.47
2022-10-03T12:28:35.240Z,93621.84
2022-10-03T12:43:49.958Z,93602.63
2022-10-03T12:59:09.803Z,93622.69
2022-10-03T13:14:23.478Z,93609.66
2022-10-03T13:29:30.076Z,93618.06
2022-10-03T13:44:34.887Z,93594.78
2022-10-03T13:59:39.394Z,93608.84
2022-10-03T14:14:48.679Z,93615.97
2022-10-03T14:29:52.949Z,93616.63
2022-10-03T14:44:56.528Z,93607.75
2022-10-03T14:59:58.477Z,93636.66
2022-10-03T15:15:05.874Z,93648.88
2022-10-03T15:30:07.943Z,93645.50
2022-10-03T15:45:17.439Z,93668.28
2022-10-03T16:00:24.710Z,93661.88
2022-10-03T16:15:29.607Z,93686.88
2022-10-03T16:30:36.329Z,93690.56
2022-10-03T16:45:44.030Z,93712.78
2022-10-03T17:16:44.188Z,93741.75
2022-10-03T17:31:46.020Z,93741.09
2022-10-03T17:46:56.555Z,93763.25
2022-10-03T18:02:04.692Z,93756.63
2022-10-03T18:17:09.193Z,93754.81
2022-10-03T18:32:10.619Z,93769.25
2022-10-03T18:47:27.158Z,93784.91
2022-10-03T19:02:34.918Z,93813.44
2022-10-03T19:17:45.572Z,93802.59
2022-10-03T19:32:50.200Z,93799.28
2022-10-03T19:47:54.353Z,93798.69
2022-10-03T20:03:16.571Z,93794.75
2022-10-03T20:18:21.155Z,93810.88
2022-10-03T20:33:30.592Z,93830.56
2022-10-03T20:48:35.335Z,93832.47
2022-10-03T21:04:06.251Z,93830.72
2022-10-03T21:19:15.670Z,93852.13
2022-10-03T21:34:17.087Z,93849.16
2022-10-03T21:49:33.878Z,93862.22
2022-10-03T22:16:13.377Z,93856.97
2022-10-03T22:31:34.620Z,93848.69
2022-10-03T22:46:37.472Z,93855.50
2022-10-03T23:01:42.554Z,93849.25
2022-10-03T23:17:02.604Z,93844.34
2022-10-03T23:32:05.616Z,93821.19
2022-10-03T23:47:10.384Z,93828.63
